EGTK/OXF METAR and TAF weather

Enter ICAO airport designator
Station Type Date Time Source
EGTK METAR 2021/09/28 04:50 UTC NOAA

EGTK 280450Z 18006KT CAVOK 10/09 Q1017


Station Type Date Time Source
EGTK Decoded METAR 2021/09/28 04:50 UTC NOAA

Station name not available
Sep 28, 2021 - 12:50 AM EDT / 2021.09.28 0450 UTC
Wind: from the S (180 degrees) at 7 MPH (6 KT):0
Visibility: greater than 7 mile(s):0
Temperature: 50 F (10 C)
Dew Point: 48 F (9 C)
Relative Humidity: 93%
Pressure (altimeter): 30.03 in. Hg (1017 hPa)
ob: EGTK 280450Z 18006KT CAVOK 10/09 Q1017
cycle: 5

Station Type Date Time Source
EGTK TAF UTC NOAA

Error!

Example: see airport list